Time;durP1;ratioP1;P1;durP2;ratioP2;P2;SDS_P1;SDS_P2;PMS_P1;PMS_P2;Temp;Humidity;BMP_temperature;BMP_pressure;BME280_temperature;BME280_humidity;BME280_pressure;Samples;Min_cycle;Max_cycle;Signal;HPM_P1;HPM_P2
2021/05/04 00:01:32;;;;;;;14.37;12.23;;;7.60;99.90;;;;;;5052390;28;20564;-61
2021/05/04 00:03:58;;;;;;;17.47;13.90;;;7.70;99.90;;;;;;5052709;28;20261;-61
2021/05/04 00:06:23;;;;;;;17.53;14.70;;;7.70;99.90;;;;;;5053344;28;20190;-61
2021/05/04 00:08:49;;;;;;;14.27;12.50;;;7.80;99.90;;;;;;5052453;28;20189;-61
2021/05/04 00:11:15;;;;;;;18.40;15.63;;;7.90;99.90;;;;;;5053474;28;20223;-61
2021/05/04 00:13:40;;;;;;;13.10;11.70;;;7.90;96.40;;;;;;5053384;28;20189;-61
2021/05/04 00:16:06;;;;;;;14.13;12.73;;;8.00;69.40;;;;;;5053001;28;20269;-61
2021/05/04 00:18:31;;;;;;;15.27;13.07;;;8.10;24.80;;;;;;5053317;28;20177;-61
2021/05/04 00:20:57;;;;;;;14.27;11.63;;;8.30;7.60;;;;;;5053254;28;20188;-61
2021/05/04 00:23:23;;;;;;;13.60;11.93;;;8.20;1.00;;;;;;5052668;28;20195;-61
2021/05/04 00:25:48;;;;;;;14.73;12.20;;;8.40;1.00;;;;;;5052677;28;20180;-60
2021/05/04 00:28:14;;;;;;;16.20;14.47;;;8.40;1.00;;;;;;5053016;28;20177;-60
2021/05/04 00:30:39;;;;;;;13.27;11.87;;;8.30;1.00;;;;;;5052992;28;20180;-57
2021/05/04 00:33:05;;;;;;;15.33;13.60;;;8.20;1.00;;;;;;5052827;28;20208;-58
2021/05/04 00:35:30;;;;;;;16.30;13.00;;;8.20;1.00;;;;;;5052444;28;20233;-58
2021/05/04 00:37:56;;;;;;;13.30;12.00;;;8.20;1.00;;;;;;5052719;28;20190;-58
2021/05/04 00:40:21;;;;;;;12.40;10.70;;;8.20;1.00;;;;;;5053000;28;20249;-58
2021/05/04 00:42:47;;;;;;;14.60;12.57;;;8.20;1.00;;;;;;5053028;28;20411;-58
2021/05/04 00:45:13;;;;;;;13.13;10.87;;;8.20;1.00;;;;;;5052396;28;20258;-58
2021/05/04 00:47:39;;;;;;;12.93;11.63;;;8.20;1.00;;;;;;5051881;28;20770;-61
2021/05/04 00:50:05;;;;;;;11.43;10.23;;;8.30;1.00;;;;;;5053487;28;20579;-61
2021/05/04 00:52:32;;;;;;;13.10;11.05;;;8.20;1.00;;;;;;5053233;28;20214;-61
2021/05/04 00:54:58;;;;;;;12.18;10.63;;;8.10;1.00;;;;;;5053050;28;20203;-61
2021/05/04 00:57:24;;;;;;;12.73;10.53;;;8.20;1.00;;;;;;5054523;28;20176;-61
2021/05/04 00:59:51;;;;;;;13.30;11.00;;;8.20;1.00;;;;;;5053668;28;20434;-61
2021/05/04 01:02:17;;;;;;;11.40;10.10;;;8.20;1.00;;;;;;5054321;28;20177;-61
2021/05/04 01:04:44;;;;;;;12.13;10.90;;;8.20;1.00;;;;;;5054603;28;20180;-61
2021/05/04 01:07:10;;;;;;;11.10;9.90;;;8.30;1.00;;;;;;5053140;28;20606;-61
2021/05/04 01:09:35;;;;;;;11.50;10.30;;;8.20;1.00;;;;;;5054044;28;20183;-60
2021/05/04 01:12:01;;;;;;;11.17;9.70;;;8.40;1.00;;;;;;5054124;28;20207;-58
2021/05/04 01:14:27;;;;;;;12.65;9.35;;;8.40;1.00;;;;;;5055757;28;20231;-58
2021/05/04 01:16:54;;;;;;;12.03;10.13;;;8.40;1.00;;;;;;5055633;28;20173;-58
2021/05/04 01:19:21;;;;;;;11.40;9.35;;;8.20;1.00;;;;;;5057245;28;20194;-58
2021/05/04 01:21:47;;;;;;;12.90;9.50;;;8.20;1.00;;;;;;5058656;28;20224;-58
2021/05/04 01:24:15;;;;;;;10.50;9.10;;;8.30;1.00;;;;;;5057490;28;20230;-57
2021/05/04 01:26:45;;;;;;;12.45;10.57;;;8.40;1.00;;;;;;5057250;28;20270;-57
2021/05/04 01:29:11;;;;;;;10.15;9.25;;;8.50;1.00;;;;;;5056203;28;20612;-57
2021/05/04 01:31:37;;;;;;;10.83;9.73;;;8.60;1.00;;;;;;5056106;28;20221;-57
2021/05/04 01:34:03;;;;;;;9.02;8.07;;;8.50;1.00;;;;;;5055482;28;20192;-58
2021/05/04 01:36:28;;;;;;;10.57;8.43;;;8.60;99.90;;;;;;5056302;28;20179;-57
2021/05/04 01:38:54;;;;;;;10.53;9.40;;;8.40;99.90;;;;;;5056153;28;20419;-57
2021/05/04 01:41:19;;;;;;;10.60;9.47;;;8.30;1.00;;;;;;5056074;28;20237;-57
2021/05/04 01:43:45;;;;;;;10.20;8.20;;;8.40;1.00;;;;;;5055400;28;20249;-57
2021/05/04 01:46:10;;;;;;;9.83;8.37;;;8.40;1.00;;;;;;5055722;28;20194;-57
2021/05/04 01:48:36;;;;;;;11.70;9.60;;;8.30;1.00;;;;;;5055712;28;20199;-60
2021/05/04 01:51:02;;;;;;;9.63;8.63;;;8.40;1.00;;;;;;5055901;28;20191;-60
2021/05/04 01:53:28;;;;;;;10.17;8.17;;;8.30;1.00;;;;;;5055585;28;20194;-60
2021/05/04 01:55:53;;;;;;;11.00;8.80;;;8.40;99.90;;;;;;5054544;28;20480;-60
2021/05/04 01:58:19;;;;;;;9.90;8.90;;;8.50;99.90;;;;;;5055651;28;20945;-60
2021/05/04 02:00:45;;;;;;;7.30;6.60;;;8.40;99.90;;;;;;5055656;28;20183;-60
2021/05/04 02:03:10;;;;;;;8.73;7.87;;;8.40;99.90;;;;;;5054360;28;20271;-58
2021/05/04 02:05:36;;;;;;;8.27;7.43;;;8.40;99.90;;;;;;5055294;28;20598;-58
2021/05/04 02:08:01;;;;;;;8.97;8.17;;;8.40;99.90;;;;;;5055409;28;20226;-60
2021/05/04 02:10:30;;;;;;;7.87;7.07;;;8.50;99.90;;;;;;5055422;28;20204;-57
2021/05/04 02:12:56;;;;;;;9.63;7.88;;;8.50;99.90;;;;;;5055493;28;20241;-57
2021/05/04 02:15:21;;;;;;;8.47;7.37;;;8.60;99.90;;;;;;5055185;28;20627;-57
2021/05/04 02:17:47;;;;;;;8.37;7.57;;;8.60;99.90;;;;;;5055424;28;20206;-57
2021/05/04 02:20:13;;;;;;;8.90;7.60;;;8.80;99.90;;;;;;5055228;28;20173;-57
2021/05/04 02:22:39;;;;;;;7.68;6.95;;;9.10;99.90;;;;;;5055424;28;20719;-57
2021/05/04 02:25:05;;;;;;;9.57;8.03;;;9.10;99.90;;;;;;5054549;28;20202;-61
2021/05/04 02:27:31;;;;;;;8.20;7.38;;;9.10;99.90;;;;;;5055301;28;20521;-60
2021/05/04 02:29:56;;;;;;;9.23;7.50;;;9.00;99.90;;;;;;5054597;28;20180;-60
2021/05/04 02:32:22;;;;;;;9.10;7.00;;;9.00;99.90;;;;;;5054214;28;20207;-60
2021/05/04 02:34:47;;;;;;;8.40;7.30;;;9.10;99.90;;;;;;5054290;28;20520;-60
2021/05/04 02:37:13;;;;;;;8.30;7.50;;;8.90;99.90;;;;;;5054800;28;20616;-60
2021/05/04 02:39:39;;;;;;;9.10;8.27;;;8.70;99.90;;;;;;5054908;28;20189;-60
2021/05/04 02:42:05;;;;;;;7.93;7.03;;;8.30;99.90;;;;;;5054740;28;20204;-60
2021/05/04 02:44:30;;;;;;;8.82;7.93;;;8.40;1.00;;;;;;5054134;28;20197;-60
2021/05/04 02:46:56;;;;;;;7.77;6.77;;;8.40;1.00;;;;;;5054625;28;20188;-60
2021/05/04 02:49:22;;;;;;;10.00;8.03;;;8.40;1.00;;;;;;5054825;28;20185;-60
2021/05/04 02:51:47;;;;;;;7.80;7.00;;;8.30;1.00;;;;;;5054655;28;20212;-59
2021/05/04 02:54:13;;;;;;;8.30;7.33;;;8.40;1.00;;;;;;5054646;28;20186;-61
2021/05/04 02:56:39;;;;;;;8.07;7.28;;;8.40;1.00;;;;;;5054811;28;20247;-57
2021/05/04 02:59:04;;;;;;;8.87;7.50;;;8.40;1.00;;;;;;5054566;28;20174;-60
2021/05/04 03:01:30;;;;;;;7.90;6.93;;;8.40;1.00;;;;;;5054424;28;20240;-58
2021/05/04 03:03:55;;;;;;;7.50;6.70;;;8.40;1.00;;;;;;5053731;28;20182;-60
2021/05/04 03:06:21;;;;;;;7.90;6.90;;;8.30;1.00;;;;;;5054540;28;20191;-60
2021/05/04 03:08:47;;;;;;;9.67;7.20;;;8.40;1.00;;;;;;5054309;28;20181;-61
2021/05/04 03:11:13;;;;;;;7.37;6.67;;;8.50;1.00;;;;;;5054217;28;20210;-57
2021/05/04 03:13:38;;;;;;;8.48;7.22;;;8.60;1.00;;;;;;5053973;28;20177;-61
2021/05/04 03:16:04;;;;;;;7.17;6.47;;;8.60;1.00;;;;;;5053723;28;20637;-61
2021/05/04 03:18:30;;;;;;;7.33;6.60;;;8.70;1.00;;;;;;5054134;28;20173;-61
2021/05/04 03:20:55;;;;;;;11.40;6.87;;;8.70;99.90;;;;;;5053063;28;20422;-61
2021/05/04 03:23:22;;;;;;;7.70;7.00;;;8.70;99.90;;;;;;5053797;28;20591;-61
2021/05/04 03:25:48;;;;;;;7.72;6.80;;;8.80;99.90;;;;;;5053666;28;20188;-61
2021/05/04 03:28:15;;;;;;;7.57;6.43;;;9.10;99.90;;;;;;5054754;28;20165;-62
2021/05/04 03:30:41;;;;;;;8.15;6.07;;;9.20;99.90;;;;;;5054971;28;20184;-61
2021/05/04 03:33:07;;;;;;;6.00;5.00;;;9.30;99.90;;;;;;5054953;28;20230;-62
2021/05/04 03:35:34;;;;;;;6.13;5.10;;;9.10;1.00;;;;;;5053681;28;20888;-62
2021/05/04 03:38:00;;;;;;;6.32;5.70;;;9.00;1.00;;;;;;5053900;28;20175;-58
2021/05/04 03:40:26;;;;;;;6.68;5.95;;;9.10;1.00;;;;;;5053931;28;20177;-58
2021/05/04 03:42:51;;;;;;;5.13;4.63;;;9.00;99.90;;;;;;5053725;28;20516;-58
2021/05/04 03:45:17;;;;;;;7.83;5.07;;;8.90;1.00;;;;;;5053377;28;20180;-58
2021/05/04 03:47:44;;;;;;;4.60;4.10;;;8.90;99.90;;;;;;5052901;28;20184;-58
2021/05/04 03:50:16;;;;;;;4.85;4.22;;;9.00;1.00;;;;;;5054275;28;20609;-58
2021/05/04 03:52:42;;;;;;;5.65;4.78;;;9.10;1.00;;;;;;5052642;28;20216;-61
2021/05/04 03:55:08;;;;;;;5.28;4.40;;;9.20;99.90;;;;;;5053372;28;20242;-61
2021/05/04 03:57:34;;;;;;;5.70;4.13;;;9.30;51.20;;;;;;5052363;28;20169;-61
2021/05/04 04:00:00;;;;;;;5.07;4.57;;;9.40;99.90;;;;;;5053658;28;20199;-61
2021/05/04 04:02:25;;;;;;;5.30;4.80;;;9.40;99.90;;;;;;5053291;28;20927;-61
2021/05/04 04:04:51;;;;;;;4.80;4.10;;;9.40;99.90;;;;;;5052851;28;20616;-61
2021/05/04 04:07:17;;;;;;;4.37;3.97;;;9.30;99.90;;;;;;5053383;28;20519;-61
2021/05/04 04:09:42;;;;;;;5.63;4.10;;;9.30;99.90;;;;;;5053044;28;20185;-61
2021/05/04 04:12:08;;;;;;;5.80;4.30;;;9.30;1.00;;;;;;5053597;28;20227;-61
2021/05/04 04:14:34;;;;;;;4.53;3.70;;;9.30;99.90;;;;;;5052677;28;20177;-61
2021/05/04 04:16:59;;;;;;;4.47;3.57;;;9.60;1.00;;;;;;5053177;28;20185;-61
2021/05/04 04:19:25;;;;;;;4.50;3.60;;;9.60;99.90;;;;;;5053243;28;20426;-61
2021/05/04 04:21:50;;;;;;;3.80;3.50;;;9.40;99.90;;;;;;5053078;28;20191;-61
2021/05/04 04:24:17;;;;;;;3.90;3.57;;;9.40;82.20;;;;;;5052493;28;20177;-61
2021/05/04 04:26:42;;;;;;;4.45;3.70;;;9.40;1.00;;;;;;5053381;28;20508;-61
2021/05/04 04:29:09;;;;;;;3.80;3.40;;;9.40;99.90;;;;;;5053200;28;20180;-61
2021/05/04 04:31:34;;;;;;;4.20;3.80;;;9.50;99.90;;;;;;5052898;28;20200;-59
2021/05/04 04:34:00;;;;;;;4.03;3.47;;;9.50;1.00;;;;;;5052479;28;20194;-58
2021/05/04 04:36:26;;;;;;;4.83;3.80;;;9.60;99.90;;;;;;5052962;28;20272;-58
2021/05/04 04:38:51;;;;;;;4.40;3.40;;;9.60;1.00;;;;;;5053090;28;20177;-59
2021/05/04 04:41:17;;;;;;;4.23;3.40;;;9.70;99.90;;;;;;5052021;28;20194;-59
2021/05/04 04:43:46;;;;;;;4.50;4.10;;;9.80;24.90;;;;;;5052870;28;20219;-59
2021/05/04 04:46:12;;;;;;;3.80;3.38;;;9.90;99.90;;;;;;5052731;28;20218;-58
2021/05/04 04:48:37;;;;;;;4.00;3.60;;;10.00;99.90;;;;;;5052853;28;20223;-58
2021/05/04 04:51:03;;;;;;;4.40;4.00;;;10.00;99.90;;;;;;5052859;28;20271;-61
2021/05/04 04:53:28;;;;;;;6.07;3.90;;;10.10;99.90;;;;;;5052853;28;20181;-61
2021/05/04 04:55:54;;;;;;;4.93;3.80;;;10.00;1.00;;;;;;5056827;28;20184;-61
2021/05/04 04:58:19;;;;;;;5.10;3.97;;;9.90;99.90;;;;;;5056694;28;20194;-60
2021/05/04 05:00:45;;;;;;;5.80;4.37;;;9.90;1.00;;;;;;5057129;28;20271;-60
2021/05/04 05:03:11;;;;;;;4.83;4.10;;;9.90;1.00;;;;;;5056636;28;20190;-60
2021/05/04 05:05:36;;;;;;;4.13;3.80;;;9.80;28.20;;;;;;5056276;28;20248;-60
2021/05/04 05:08:02;;;;;;;5.33;4.17;;;9.70;99.90;;;;;;5056591;28;20672;-60
2021/05/04 05:10:27;;;;;;;5.80;4.67;;;9.70;99.90;;;;;;5056522;28;20203;-60
2021/05/04 05:12:53;;;;;;;5.20;4.70;;;9.70;99.90;;;;;;5056667;28;20365;-58
2021/05/04 05:15:19;;;;;;;8.83;5.13;;;9.80;1.00;;;;;;5056426;28;20172;-60
2021/05/04 05:17:44;;;;;;;5.33;4.70;;;9.70;1.00;;;;;;5056373;28;20210;-60
2021/05/04 05:20:11;;;;;;;5.70;4.70;;;9.60;1.00;;;;;;5056610;28;20184;-60
2021/05/04 05:22:36;;;;;;;7.55;6.90;;;9.60;1.00;;;;;;5056108;28;20636;-61
2021/05/04 05:25:03;;;;;;;4.97;4.53;;;9.50;1.00;;;;;;5055901;28;20259;-61
2021/05/04 05:27:30;;;;;;;6.10;4.45;;;9.60;1.00;;;;;;5056257;28;20194;-60
2021/05/04 05:29:57;;;;;;;4.80;4.40;;;9.50;1.00;;;;;;5056355;28;20219;-60
2021/05/04 05:32:25;;;;;;;4.53;4.13;;;9.50;1.00;;;;;;5056019;28;20222;-61
2021/05/04 05:34:51;;;;;;;5.18;4.05;;;9.30;1.00;;;;;;5055755;28;20184;-61
2021/05/04 05:37:17;;;;;;;5.50;4.93;;;9.00;24.20;;;;;;5056053;28;20190;-60
2021/05/04 05:39:42;;;;;;;5.20;4.40;;;9.00;91.00;;;;;;5056226;28;20203;-60
2021/05/04 05:42:13;;;;;;;4.50;4.10;;;9.00;99.90;;;;;;5055964;28;20678;-57
2021/05/04 05:44:39;;;;;;;5.55;5.05;;;9.10;99.90;;;;;;5055405;28;20526;-57
2021/05/04 05:47:05;;;;;;;4.80;3.87;;;9.30;99.90;;;;;;5055913;28;20215;-57
2021/05/04 05:49:31;;;;;;;4.75;4.30;;;9.20;99.90;;;;;;5055920;28;20434;-61
2021/05/04 05:51:57;;;;;;;5.07;4.20;;;9.10;99.90;;;;;;5055689;28;20254;-61
2021/05/04 05:54:22;;;;;;;4.50;4.07;;;9.20;99.90;;;;;;5055571;28;20636;-61
2021/05/04 05:56:49;;;;;;;5.10;4.60;;;9.10;99.90;;;;;;5055688;28;20257;-61
2021/05/04 05:59:15;;;;;;;4.50;4.10;;;9.10;99.90;;;;;;5055876;28;20184;-58
2021/05/04 06:01:40;;;;;;;4.90;4.50;;;9.00;99.90;;;;;;5055783;28;20629;-58
2021/05/04 06:04:06;;;;;;;6.87;5.30;;;8.90;99.90;;;;;;5055580;28;20195;-58
2021/05/04 06:06:32;;;;;;;6.67;5.60;;;9.00;99.90;;;;;;5054518;28;20253;-57
2021/05/04 06:08:57;;;;;;;6.43;5.80;;;8.90;99.90;;;;;;5055980;28;20435;-58
2021/05/04 06:11:23;;;;;;;5.50;4.30;;;8.80;99.90;;;;;;5055452;28;20211;-58
2021/05/04 06:13:49;;;;;;;5.25;4.75;;;8.80;99.90;;;;;;5054983;28;20597;-61
2021/05/04 06:16:15;;;;;;;5.97;5.47;;;8.80;99.90;;;;;;5055418;28;20254;-58
2021/05/04 06:18:40;;;;;;;5.53;4.57;;;8.90;99.90;;;;;;5055275;28;20173;-58
2021/05/04 06:21:06;;;;;;;5.33;4.77;;;9.10;99.90;;;;;;5055223;28;20186;-60
2021/05/04 06:23:32;;;;;;;4.50;4.07;;;9.20;99.90;;;;;;5055087;28;20203;-60
2021/05/04 06:25:57;;;;;;;6.43;5.43;;;9.30;99.90;;;;;;5054860;28;20642;-60
2021/05/04 06:28:23;;;;;;;6.43;5.30;;;9.40;99.90;;;;;;5054759;28;20179;-60
2021/05/04 06:30:49;;;;;;;4.33;3.53;;;9.30;99.90;;;;;;5055113;28;20189;-60
2021/05/04 06:33:15;;;;;;;6.77;4.50;;;9.10;99.90;;;;;;5054931;28;20543;-60
2021/05/04 06:35:43;;;;;;;5.25;4.75;;;9.00;99.90;;;;;;5054482;28;20222;-57
2021/05/04 06:38:15;;;;;;;5.15;4.53;;;9.00;99.90;;;;;;5055098;28;20177;-58
2021/05/04 06:40:42;;;;;;;6.10;5.18;;;8.90;99.90;;;;;;5055089;28;20302;-57
2021/05/04 06:43:08;;;;;;;5.10;4.60;;;8.90;99.90;;;;;;5054666;28;20188;-60
2021/05/04 06:45:34;;;;;;;5.03;4.60;;;8.90;99.90;;;;;;5054645;28;20199;-60
2021/05/04 06:47:59;;;;;;;6.57;5.50;;;9.10;99.90;;;;;;5054891;28;20180;-60
2021/05/04 06:50:26;;;;;;;7.27;4.83;;;9.30;99.90;;;;;;5054949;28;20204;-61
2021/05/04 06:52:51;;;;;;;4.78;4.28;;;9.50;99.90;;;;;;5053659;28;20203;-64
2021/05/04 06:55:17;;;;;;;4.70;4.23;;;9.60;99.90;;;;;;5047027;28;20659;-61
2021/05/04 06:57:43;;;;;;;8.40;4.40;;;9.70;99.90;;;;;;5054282;28;20177;-62
2021/05/04 07:00:09;;;;;;;5.03;4.40;;;9.90;99.90;;;;;;5054248;28;20180;-62
2021/05/04 07:02:35;;;;;;;5.18;4.15;;;10.00;99.90;;;;;;5053884;28;20200;-62
2021/05/04 07:05:01;;;;;;;5.70;4.37;;;10.10;99.90;;;;;;5054028;28;20188;-61
2021/05/04 07:07:27;;;;;;;4.47;4.07;;;10.30;87.10;;;;;;5054653;28;20339;-62
2021/05/04 07:09:52;;;;;;;4.00;3.60;;;10.20;1.00;;;;;;5054579;28;20687;-63
2021/05/04 07:12:18;;;;;;;5.33;3.80;;;10.20;1.00;;;;;;5057247;28;20679;-66
2021/05/04 07:14:45;;;;;;;5.53;4.00;;;10.30;1.00;;;;;;5053712;28;20181;-65
2021/05/04 07:17:10;;;;;;;3.75;3.45;;;10.60;1.00;;;;;;5069640;28;20252;-65
2021/05/04 07:19:38;;;;;;;3.70;3.37;;;10.60;1.00;;;;;;5073258;28;20188;-61
2021/05/04 07:22:03;;;;;;;4.47;3.20;;;10.80;1.00;;;;;;5074201;28;20250;-63
2021/05/04 07:24:29;;;;;;;4.13;3.57;;;10.70;1.00;;;;;;5055265;28;20176;-64
2021/05/04 07:26:55;;;;;;;3.50;3.20;;;10.70;1.00;;;;;;5053829;28;20903;-60
2021/05/04 07:29:20;;;;;;;4.00;3.10;;;10.50;1.00;;;;;;5053694;28;20446;-63
2021/05/04 07:31:46;;;;;;;3.13;2.47;;;10.30;1.00;;;;;;5060144;28;20228;-63
2021/05/04 07:34:12;;;;;;;3.10;2.80;;;10.20;1.00;;;;;;5072220;28;20176;-62
2021/05/04 07:36:37;;;;;;;5.33;3.47;;;10.20;1.00;;;;;;5075962;28;20616;-63
2021/05/04 07:39:04;;;;;;;2.70;2.50;;;10.50;1.00;;;;;;5073855;28;20313;-60
2021/05/04 07:48:22;;;;;;;4.57;2.30;;;10.60;1.00;;;;;;5051806;28;20250;-57
2021/05/04 07:50:48;;;;;;;2.88;2.30;;;10.70;1.00;;;;;;5050222;28;20519;-62
2021/05/04 07:53:14;;;;;;;3.30;3.00;;;10.90;1.00;;;;;;5056370;28;20221;-62
2021/05/04 07:55:39;;;;;;;3.65;3.35;;;10.80;1.00;;;;;;5053847;28;20185;-57
2021/05/04 07:58:05;;;;;;;2.60;2.40;;;10.70;1.00;;;;;;5044972;28;20567;-60
2021/05/04 08:00:30;;;;;;;2.93;2.63;;;10.70;1.00;;;;;;5053224;28;20173;-63
2021/05/04 08:02:56;;;;;;;2.57;2.37;;;10.70;1.00;;;;;;5052791;28;20185;-64
2021/05/04 08:05:21;;;;;;;5.70;2.50;;;10.70;1.00;;;;;;5052766;28;20195;-63
2021/05/04 08:07:47;;;;;;;4.73;2.50;;;10.80;1.00;;;;;;5053203;28;20192;-65
2021/05/04 08:10:13;;;;;;;3.83;2.30;;;10.70;1.00;;;;;;5052852;28;20196;-60
2021/05/04 08:12:38;;;;;;;3.87;3.00;;;10.70;1.00;;;;;;5052636;28;20205;-66
2021/05/04 08:15:06;;;;;;;2.90;2.70;;;10.70;1.00;;;;;;5052273;28;20204;-64
2021/05/04 08:17:35;;;;;;;2.80;2.33;;;10.70;1.00;;;;;;5052774;28;20180;-64
2021/05/04 08:20:03;;;;;;;2.85;2.65;;;10.50;1.00;;;;;;5053103;28;20176;-64
2021/05/04 08:22:29;;;;;;;2.95;2.60;;;10.50;1.00;;;;;;5056916;28;20184;-64
2021/05/04 08:24:56;;;;;;;2.50;2.10;;;10.50;1.00;;;;;;5072520;28;20326;-63
2021/05/04 08:27:21;;;;;;;2.22;1.90;;;10.80;1.00;;;;;;5072752;28;20176;-63
2021/05/04 08:29:47;;;;;;;5.70;2.10;;;10.80;1.00;;;;;;5071951;28;20207;-63
2021/05/04 08:32:13;;;;;;;2.70;2.20;;;10.80;1.00;;;;;;5071907;28;20199;-64
2021/05/04 08:34:38;;;;;;;3.33;2.50;;;11.00;1.00;;;;;;5072746;28;20233;-63
2021/05/04 08:37:05;;;;;;;2.50;2.07;;;11.00;1.00;;;;;;5072992;28;20781;-64
2021/05/04 08:39:30;;;;;;;3.45;2.40;;;11.30;1.00;;;;;;5073718;28;20175;-65
2021/05/04 08:41:56;;;;;;;2.47;2.27;;;11.40;99.90;;;;;;5072290;28;20659;-60
2021/05/04 08:44:22;;;;;;;3.13;2.10;;;11.60;99.90;;;;;;5073059;28;20544;-62
2021/05/04 08:46:49;;;;;;;5.70;2.63;;;11.80;99.90;;;;;;5072240;28;20180;-62
2021/05/04 08:49:16;;;;;;;2.40;2.20;;;11.90;99.90;;;;;;5072629;28;20237;-62
2021/05/04 08:51:47;;;;;;;2.22;2.00;;;11.90;99.90;;;;;;5073972;28;20211;-67
2021/05/04 08:54:13;;;;;;;2.45;1.75;;;12.00;99.90;;;;;;5073268;28;20175;-65
2021/05/04 08:56:43;;;;;;;2.53;2.27;;;11.80;99.90;;;;;;5075038;28;20200;-65
2021/05/04 08:59:09;;;;;;;2.75;2.25;;;11.80;1.00;;;;;;5061734;28;20267;-62
2021/05/04 09:01:35;;;;;;;2.40;2.20;;;12.00;1.00;;;;;;5055512;28;20526;-61
2021/05/04 09:04:06;;;;;;;8.90;3.88;;;11.90;1.00;;;;;;5054775;28;20192;-60
2021/05/04 09:06:35;;;;;;;3.28;2.75;;;11.70;1.00;;;;;;5053686;28;20189;-62
2021/05/04 09:09:26;;;;;;;3.58;2.63;;;11.60;1.00;;;;;;5034414;28;20195;-65
2021/05/04 09:17:19;;;;;;;2.92;2.63;;;11.30;1.00;;;;;;5051511;28;20581;-62
2021/05/04 09:22:36;;;;;;;2.40;2.20;;;11.00;1.00;;;;;;5055017;28;20230;-66
2021/05/04 09:25:02;;;;;;;2.22;1.77;;;11.00;1.00;;;;;;5052995;28;20579;-60
2021/05/04 09:27:28;;;;;;;2.38;2.15;;;10.90;1.00;;;;;;5053273;28;20177;-66
2021/05/04 09:29:59;;;;;;;4.13;1.70;;;10.90;1.00;;;;;;5052704;28;20610;-64
2021/05/04 09:32:28;;;;;;;2.75;1.70;;;11.10;1.00;;;;;;5053913;28;20193;-64
2021/05/04 09:34:56;;;;;;;1.67;1.45;;;11.10;99.90;;;;;;5052458;28;20615;-59
2021/05/04 09:37:35;;;;;;;2.17;1.70;;;11.20;99.90;;;;;;5053214;28;20185;-59
2021/05/04 09:40:38;;;;;;;1.83;1.73;;;11.10;99.90;;;;;;5054389;28;20268;-63
2021/05/04 09:43:07;;;;;;;1.60;1.50;;;11.20;99.90;;;;;;5014982;28;20277;-59
2021/05/04 09:45:38;;;;;;;1.50;1.40;;;11.10;99.90;;;;;;5045487;28;20204;-64
2021/05/04 09:48:13;;;;;;;2.15;1.55;;;11.30;96.50;;;;;;5056894;28;20193;-64
2021/05/04 09:50:53;;;;;;;1.30;1.20;;;11.40;1.00;;;;;;5056667;28;20624;-60
2021/05/04 09:53:49;;;;;;;1.70;1.60;;;11.50;5.80;;;;;;5049048;28;20528;-62
2021/05/04 09:56:29;;;;;;;6.95;1.92;;;11.50;1.00;;;;;;5036028;28;20490;-64
2021/05/04 09:58:55;;;;;;;1.60;1.50;;;11.50;1.00;;;;;;5035035;28;20192;-58
2021/05/04 10:01:20;;;;;;;3.90;1.53;;;11.30;1.00;;;;;;5035989;28;20311;-63
2021/05/04 10:03:48;;;;;;;1.70;1.60;;;11.30;97.00;;;;;;5034761;28;20186;-61
2021/05/04 10:06:15;;;;;;;3.75;2.20;;;11.40;1.00;;;;;;5036296;28;20256;-59
2021/05/04 10:08:42;;;;;;;3.45;1.70;;;11.50;1.00;;;;;;5055688;28;20211;-64
2021/05/04 10:11:12;;;;;;;2.25;1.95;;;11.50;1.00;;;;;;5054744;28;20228;-66
2021/05/04 10:13:42;;;;;;;1.90;1.80;;;11.50;1.00;;;;;;5054227;28;20204;-64
2021/05/04 10:16:09;;;;;;;2.10;2.00;;;11.50;21.70;;;;;;5055226;28;20629;-64
2021/05/04 10:18:35;;;;;;;3.35;1.95;;;11.50;1.00;;;;;;5055366;28;20594;-64
2021/05/04 10:21:03;;;;;;;2.30;2.00;;;11.50;1.00;;;;;;5055450;28;20231;-63
2021/05/04 10:23:31;;;;;;;3.15;2.00;;;11.50;1.00;;;;;;5069180;28;20187;-66
2021/05/04 10:26:05;;;;;;;2.25;2.03;;;11.50;1.00;;;;;;5075122;28;20183;-62
2021/05/04 10:28:34;;;;;;;2.35;2.25;;;11.50;99.90;;;;;;5059263;28;20253;-61
2021/05/04 10:31:05;;;;;;;2.05;1.85;;;11.50;99.90;;;;;;5054445;28;20223;-62
2021/05/04 10:33:33;;;;;;;4.53;2.38;;;11.80;1.00;;;;;;5054961;28;20197;-60
2021/05/04 10:36:00;;;;;;;3.85;2.42;;;12.10;1.00;;;;;;5055086;28;20177;-60
2021/05/04 10:38:26;;;;;;;3.20;2.10;;;11.90;55.50;;;;;;5054954;28;20264;-64
2021/05/04 10:41:03;;;;;;;2.47;1.77;;;11.90;1.00;;;;;;5054188;28;20280;-60
2021/05/04 10:43:28;;;;;;;2.05;1.88;;;12.00;1.00;;;;;;5054381;28;20230;-61
2021/05/04 10:45:58;;;;;;;2.27;2.07;;;12.40;99.90;;;;;;5054574;28;20177;-64
2021/05/04 10:48:36;;;;;;;2.25;2.05;;;12.70;99.90;;;;;;5054864;28;20490;-64
2021/05/04 10:51:03;;;;;;;1.80;1.70;;;12.90;45.80;;;;;;5054248;28;20631;-65
2021/05/04 10:53:49;;;;;;;3.17;2.50;;;13.00;99.90;;;;;;5036784;28;20217;-60
2021/05/04 10:56:15;;;;;;;2.55;2.10;;;13.20;1.00;;;;;;5053251;28;20188;-65
2021/05/04 10:58:49;;;;;;;2.30;1.75;;;13.60;99.90;;;;;;5054667;28;20516;-66
2021/05/04 11:01:18;;;;;;;3.35;1.88;;;13.90;99.90;;;;;;5052429;28;20197;-65
2021/05/04 11:03:48;;;;;;;2.90;1.67;;;13.80;1.00;;;;;;5054121;28;20181;-60
2021/05/04 11:06:24;;;;;;;1.98;1.75;;;13.70;21.40;;;;;;5054306;28;20264;-61
2021/05/04 11:08:49;;;;;;;2.05;1.90;;;13.80;38.80;;;;;;5054158;28;20219;-62
2021/05/04 11:11:27;;;;;;;1.70;1.40;;;14.20;1.00;;;;;;5054033;28;20605;-66
2021/05/04 11:14:02;;;;;;;1.58;1.48;;;14.20;68.30;;;;;;5053634;28;20179;-60
2021/05/04 11:16:46;;;;;;;2.40;1.23;;;14.40;99.90;;;;;;5054089;28;20208;-65
2021/05/04 11:19:33;;;;;;;1.30;1.20;;;14.70;1.00;;;;;;5053809;28;20497;-65
2021/05/04 11:21:58;;;;;;;1.48;1.00;;;14.50;1.00;;;;;;5055950;28;20180;-65
2021/05/04 11:24:30;;;;;;;1.20;1.10;;;14.30;99.90;;;;;;5073220;28;20340;-65
2021/05/04 11:26:58;;;;;;;1.27;1.13;;;14.50;1.00;;;;;;5074092;28;20184;-62
2021/05/04 11:29:37;;;;;;;1.92;1.73;;;14.40;1.00;;;;;;5073212;28;20708;-65
2021/05/04 11:32:10;;;;;;;2.22;1.55;;;14.40;99.90;;;;;;5040768;28;20302;-65
2021/05/04 11:34:40;;;;;;;1.75;1.30;;;14.70;99.90;;;;;;5052983;28;20188;-65
2021/05/04 11:37:11;;;;;;;2.97;1.42;;;14.60;38.90;;;;;;5053794;28;20200;-64
2021/05/04 11:39:53;;;;;;;1.70;1.60;;;14.40;1.00;;;;;;5053790;28;20200;-61
2021/05/04 11:42:36;;;;;;;2.45;2.08;;;14.60;99.90;;;;;;5034067;28;20189;-61
2021/05/04 11:45:08;;;;;;;2.67;1.67;;;13.90;1.00;;;;;;5033301;28;20185;-60
2021/05/04 11:47:34;;;;;;;1.85;1.75;;;13.90;99.90;;;;;;5034096;28;20217;-60
2021/05/04 11:50:28;;;;;;;8.35;3.30;;;14.50;1.00;;;;;;5033844;28;20595;-59
2021/05/04 11:52:58;;;;;;;3.20;2.55;;;15.20;1.00;;;;;;5032984;28;20208;-60
2021/05/04 11:55:25;;;;;;;4.65;2.85;;;15.20;99.90;;;;;;5034856;28;20174;-60
2021/05/04 11:58:08;;;;;;;3.28;2.60;;;14.90;99.90;;;;;;5053321;28;20185;-65
2021/05/04 12:00:37;;;;;;;4.05;3.20;;;14.40;1.00;;;;;;5053450;28;20191;-68
2021/05/04 12:03:13;;;;;;;3.70;2.55;;;14.20;1.00;;;;;;5051310;28;20192;-61
2021/05/04 12:05:41;;;;;;;4.00;2.97;;;14.10;6.10;;;;;;5053196;28;20183;-60
2021/05/04 12:08:07;;;;;;;2.20;2.00;;;13.90;1.00;;;;;;5053311;28;20507;-58
2021/05/04 12:10:49;;;;;;;2.22;2.03;;;13.70;1.00;;;;;;5053085;28;20193;-59
2021/05/04 12:13:19;;;;;;;3.90;2.20;;;13.20;99.90;;;;;;5053269;28;20526;-63
2021/05/04 12:15:47;;;;;;;2.88;2.65;;;13.00;99.90;;;;;;5053187;28;20183;-61
2021/05/04 12:18:21;;;;;;;3.28;2.60;;;12.90;1.00;;;;;;5052052;28;20516;-60
2021/05/04 12:20:57;;;;;;;2.40;2.20;;;12.80;1.00;;;;;;5053153;28;20534;-65
2021/05/04 12:23:33;;;;;;;2.80;2.47;;;12.90;1.00;;;;;;5048343;28;20223;-64
2021/05/04 12:26:10;;;;;;;2.40;2.20;;;13.30;1.00;;;;;;5052412;28;20172;-63
2021/05/04 12:28:51;;;;;;;2.90;2.70;;;13.20;1.00;;;;;;5052793;28;20203;-60
2021/05/04 12:31:34;;;;;;;3.58;3.22;;;13.40;1.00;;;;;;5052724;28;20176;-59
2021/05/04 12:34:00;;;;;;;4.75;4.35;;;13.70;1.00;;;;;;5052407;28;20187;-61
2021/05/04 12:36:32;;;;;;;3.70;3.03;;;13.70;1.00;;;;;;5051427;28;20589;-59
2021/05/04 12:39:00;;;;;;;4.45;3.72;;;13.80;99.90;;;;;;5051563;28;20438;-65
2021/05/04 12:41:35;;;;;;;3.33;3.03;;;14.00;99.90;;;;;;5052296;28;20286;-65
2021/05/04 12:44:22;;;;;;;4.75;2.92;;;14.20;1.00;;;;;;5052355;28;20198;-58
2021/05/04 12:47:02;;;;;;;3.80;3.50;;;14.60;28.50;;;;;;5052711;28;20246;-58
2021/05/04 12:49:35;;;;;;;2.80;2.55;;;14.70;1.00;;;;;;5052871;28;20295;-59
2021/05/04 12:52:08;;;;;;;4.65;3.17;;;15.10;1.00;;;;;;5052228;28;20199;-59
2021/05/04 12:54:36;;;;;;;3.20;2.58;;;15.40;1.00;;;;;;5052433;28;20184;-61
2021/05/04 12:57:19;;;;;;;4.55;2.65;;;15.30;1.00;;;;;;5052618;28;20272;-60
2021/05/04 12:59:45;;;;;;;2.20;2.00;;;15.30;99.90;;;;;;5053081;28;20187;-60
2021/05/04 13:02:20;;;;;;;2.40;1.97;;;15.50;1.00;;;;;;5052099;28;20218;-65
2021/05/04 13:04:52;;;;;;;3.13;2.43;;;15.40;1.00;;;;;;5052184;28;20764;-59
2021/05/04 13:07:39;;;;;;;2.70;2.37;;;15.20;1.00;;;;;;5042142;28;20901;-60
2021/05/04 13:10:23;;;;;;;3.65;1.80;;;15.20;1.00;;;;;;5032452;28;20669;-60
2021/05/04 13:30:30;;;;;;;1.85;1.02;;;9.80;99.90;;;;;;5056361;28;20190;-59
2021/05/04 13:33:00;;;;;;;5.03;1.55;;;9.90;99.90;;;;;;5055698;28;20604;-59